Pembroke, New Hampshire
Current Conditions -  °F | °C
As of 9:51 AM on Thursday 18 Dec 2014 (Local Time) from KCON Reporting Station
Broken Clouds Broken Clouds  
Wind Chill: 30°   Ceiling: 7500
Heat Index: 38°   Visibility: 10mi
Dew Point: 31°   Wind: 12mph
Humidity: 76%   Direction: 300°WNW
Pressure: 29.77"   Gusts: 22mph
Location:  43.1606°N, 71.4143°W
Report Text: KCON 181451Z AUTO 30010G19KT 10SM SCT034 BKN075 BKN095 03/M01 A2977 RMK AO2 SLP083 60000 T00331006 51019
Loading
Personal Weather Stations






























Interactive Weather Map New forecast layout! Learn more

10-Day Weather Forecast

Advertisements
Track Severe Weather on mobile